Terminal Aerodrome Forecast
Issued by NWS Des Moines, IA

Home | Current Version | Previous Version | Text Only | Print | Product List | Glossary On
Versions: 1 2 3 4 5 6 7 8 9 10 11 12 13
000
FTUS43 KDMX 261131
TAFDSM
TAF
KDSM 261131Z 2612/2712 VRB04KT P6SM SCT250
     FM261700 25008KT P6SM SCT200
     FM262200 31011KT P6SM FEW050 SCT150
     FM270300 32007KT P6SM FEW200=

USA.gov is the U.S. government's official web portal to all federal, state and local government web resources and services.